Time;durP1;ratioP1;P1;durP2;ratioP2;P2;SDS_P1;SDS_P2;PMS_P1;PMS_P2;Temp;Humidity;BMP_temperature;BMP_pressure;BME280_temperature;BME280_humidity;BME280_pressure;Samples;Min_cycle;Max_cycle;Signal;HPM_P1;HPM_P2
2022/08/18 00:00:15;;;;;;;7.75;4.35;;;;;;;23.19;53.97;98892.94;6195924;23;19999;-91
2022/08/18 00:02:41;;;;;;;5.57;3.80;;;;;;;23.25;53.61;98885.19;6195311;23;20027;-91
2022/08/18 00:05:07;;;;;;;6.85;4.50;;;;;;;23.29;53.51;98888.81;6169904;23;20011;-90
2022/08/18 00:07:33;;;;;;;5.75;3.97;;;;;;;23.10;54.29;98884.94;6170338;23;19996;-90
2022/08/18 00:09:59;;;;;;;3.95;3.55;;;;;;;23.15;54.01;98881.09;6194784;23;20023;-90
2022/08/18 00:12:33;;;;;;;6.93;3.80;;;;;;;23.00;54.17;98889.03;6169875;23;20011;-90
2022/08/18 00:15:02;;;;;;;5.95;4.43;;;;;;;22.90;55.35;98881.38;6170899;23;19996;-90
2022/08/18 00:17:28;;;;;;;4.80;3.80;;;;;;;22.86;55.06;98893.47;6221146;23;20035;-90
2022/08/18 00:19:53;;;;;;;6.85;4.10;;;;;;;22.73;55.33;98890.06;6195240;23;19996;-91
2022/08/18 00:22:19;;;;;;;5.03;4.10;;;;;;;22.78;55.52;98900.75;6196292;23;20004;-90
2022/08/18 00:24:47;;;;;;;4.78;3.72;;;;;;;22.71;56.08;98897.88;6170688;23;20370;-91
2022/08/18 00:27:12;;;;;;;7.22;3.95;;;;;;;22.58;56.12;98892.53;6196011;23;20038;-91
2022/08/18 00:29:37;;;;;;;5.35;3.70;;;;;;;22.53;55.46;98892.81;6220207;23;19996;-91
2022/08/18 00:32:14;;;;;;;5.03;3.90;;;;;;;22.43;56.45;98892.59;6220085;23;20020;-90
2022/08/18 00:34:39;;;;;;;5.00;4.10;;;;;;;22.39;56.14;98893.31;6171006;23;19996;-91
2022/08/18 00:37:05;;;;;;;7.00;4.70;;;;;;;22.39;56.26;98900.72;6196245;23;20001;-91
2022/08/18 00:39:32;;;;;;;5.85;3.95;;;;;;;22.34;56.59;98901.03;6170687;23;20003;-91
2022/08/18 00:41:58;;;;;;;5.50;4.10;;;;;;;22.34;56.70;98898.28;6171688;23;20000;-91
2022/08/18 00:44:24;;;;;;;6.80;4.13;;;;;;;22.37;56.42;98889.31;6220843;23;20000;-91
2022/08/18 00:46:49;;;;;;;6.22;4.20;;;;;;;22.40;56.34;98883.13;6195353;23;20004;-91
2022/08/18 00:49:17;;;;;;;6.60;4.10;;;;;;;22.43;56.98;98893.38;6194562;23;19992;-91
2022/08/18 00:51:45;;;;;;;6.97;4.25;;;;;;;22.51;55.76;98911.56;6220667;23;20338;-91
2022/08/18 00:54:14;;;;;;;4.68;3.97;;;;;;;22.42;56.61;98893.75;6195608;23;20427;-91
2022/08/18 00:56:44;;;;;;;8.50;4.00;;;;;;;22.57;56.36;98890.94;6219606;23;20423;-91
2022/08/18 00:59:16;;;;;;;7.50;3.97;;;;;;;22.41;57.00;98892.94;6194927;23;20426;-90
2022/08/18 01:01:42;;;;;;;8.18;4.20;;;;;;;22.41;57.52;98901.16;6170816;23;20007;-90
2022/08/18 01:04:16;;;;;;;5.65;3.50;;;;;;;22.39;57.18;98907.03;6219297;23;20004;-91
2022/08/18 01:06:45;;;;;;;7.47;4.18;;;;;;;22.33;56.85;98905.72;6196282;23;20113;-91
2022/08/18 01:09:11;;;;;;;7.43;4.55;;;;;;;22.31;56.99;98897.06;6194870;23;20346;-91
2022/08/18 01:11:37;;;;;;;8.23;4.28;;;;;;;22.31;57.00;98909.97;6219741;23;20000;-90
2022/08/18 01:14:06;;;;;;;9.35;4.35;;;;;;;22.34;56.95;98906.50;6219659;23;20004;-91
2022/08/18 01:22:04;;;;;;;10.23;4.38;;;;;;;22.18;58.29;98925.72;6224028;23;20062;-90
2022/08/18 01:27:17;;;;;;;5.22;4.30;;;;;;;22.07;58.68;98921.94;6203043;23;20072;-91
2022/08/18 01:29:46;;;;;;;8.60;4.30;;;;;;;22.10;58.50;98918.47;6194501;23;20058;-90
2022/08/18 01:32:18;;;;;;;5.50;4.20;;;;;;;22.09;58.54;98917.69;6194307;23;20047;-91
2022/08/18 01:34:45;;;;;;;;;;;;;;;22.06;58.86;98928.56;6220644;23;20004;-90
2022/08/18 01:37:11;;;;;;;6.82;4.90;;;;;;;22.02;58.38;98908.50;6219832;23;19903;-91
2022/08/18 01:39:37;;;;;;;7.80;4.85;;;;;;;21.97;58.39;98917.78;6218839;23;20049;-91
2022/08/18 01:42:03;;;;;;;6.32;4.47;;;;;;;21.97;58.67;98915.84;6193946;23;20004;-90
2022/08/18 01:44:28;;;;;;;5.78;4.38;;;;;;;22.02;58.55;98908.50;6219093;23;20044;-91
2022/08/18 01:46:55;;;;;;;7.47;4.18;;;;;;;21.84;59.53;98906.13;6219536;23;20415;-91
2022/08/18 01:49:21;;;;;;;7.63;4.35;;;;;;;21.72;59.42;98903.50;6219496;23;20003;-90
2022/08/18 01:51:47;;;;;;;5.50;4.15;;;;;;;21.70;59.99;98914.00;6194658;23;19996;-91
2022/08/18 01:54:13;;;;;;;7.95;4.28;;;;;;;21.73;59.42;98911.38;6193992;23;20003;-91
2022/08/18 01:56:40;;;;;;;8.70;4.35;;;;;;;21.71;59.72;98918.34;6219455;23;20002;-91
2022/08/18 01:59:11;;;;;;;5.63;4.13;;;;;;;21.66;60.26;98918.59;6219848;23;19996;-90
2022/08/18 02:01:37;;;;;;;6.80;4.05;;;;;;;21.62;60.46;98929.47;6195580;23;20410;-91
2022/08/18 02:04:05;;;;;;;7.93;4.20;;;;;;;21.52;60.14;98927.25;6169942;23;20007;-91
2022/08/18 02:06:31;;;;;;;5.72;4.30;;;;;;;21.42;60.25;98917.63;6195452;23;20059;-91
2022/08/18 02:08:56;;;;;;;6.18;4.07;;;;;;;21.33;60.09;98915.03;6194546;23;20007;-91
2022/08/18 02:11:22;;;;;;;6.60;3.50;;;;;;;21.41;60.01;98918.75;6194660;23;20000;-90
2022/08/18 02:13:48;;;;;;;5.18;3.97;;;;;;;21.44;60.64;98934.50;6194898;23;20008;-90
2022/08/18 02:16:13;;;;;;;6.72;4.68;;;;;;;21.36;60.36;98917.06;6169288;23;20061;-90
2022/08/18 02:18:39;;;;;;;6.10;4.18;;;;;;;21.37;60.16;98920.59;6193983;23;20008;-90
2022/08/18 02:21:07;;;;;;;6.45;4.53;;;;;;;21.32;60.51;98909.91;6194379;23;20079;-91
2022/08/18 02:23:33;;;;;;;8.80;4.57;;;;;;;21.31;60.27;98911.03;6194455;23;20000;-91
2022/08/18 02:26:00;;;;;;;7.10;4.40;;;;;;;21.31;60.12;98911.03;6193268;23;20011;-91
2022/08/18 02:28:26;;;;;;;5.18;4.20;;;;;;;21.34;59.74;98915.81;6218958;23;20501;-91
2022/08/18 02:30:51;;;;;;;5.78;3.85;;;;;;;21.49;59.94;98934.25;6218661;23;19996;-91
2022/08/18 02:33:17;;;;;;;7.55;4.75;;;;;;;21.49;60.27;98917.00;6213438;23;20028;-91
2022/08/18 02:35:45;;;;;;;9.23;4.18;;;;;;;21.49;59.84;98928.75;6140126;23;19993;-91
2022/08/18 02:38:10;;;;;;;7.15;4.38;;;;;;;21.66;59.78;98913.13;6159079;23;20003;-90
2022/08/18 02:40:37;;;;;;;10.43;4.50;;;;;;;21.82;59.09;98935.06;6183980;23;20001;-91
2022/08/18 02:43:07;;;;;;;6.20;3.95;;;;;;;21.80;58.86;98924.44;6139602;23;20435;-90
2022/08/18 02:45:33;;;;;;;5.75;4.30;;;;;;;21.76;59.20;98929.81;6139229;23;20012;-91
2022/08/18 02:47:59;;;;;;;6.80;4.55;;;;;;;21.69;59.54;98934.34;6188706;23;20079;-91
2022/08/18 02:50:25;;;;;;;9.02;4.70;;;;;;;21.61;59.61;98936.13;6139135;23;20050;-91
2022/08/18 02:52:50;;;;;;;5.53;3.80;;;;;;;21.49;60.16;98928.75;6188861;23;19997;-91
2022/08/18 02:55:16;;;;;;;5.30;4.03;;;;;;;21.47;60.27;98933.78;6138719;23;20008;-90
2022/08/18 02:57:42;;;;;;;6.15;4.03;;;;;;;21.47;59.87;98930.25;6163676;23;19996;-91
2022/08/18 03:00:11;;;;;;;7.65;4.40;;;;;;;21.52;60.02;98946.44;6213170;23;20000;-90
2022/08/18 03:02:37;;;;;;;10.25;4.80;;;;;;;21.35;60.21;98926.44;6164950;23;20000;-91
2022/08/18 03:05:03;;;;;;;5.95;4.40;;;;;;;21.33;61.34;98920.50;6163752;23;20450;-91
2022/08/18 03:07:29;;;;;;;8.80;4.65;;;;;;;21.36;60.19;98930.75;6188494;23;19996;-90
2022/08/18 03:09:55;;;;;;;6.95;4.18;;;;;;;21.30;60.67;98936.84;6163547;23;20025;-91
2022/08/18 03:12:21;;;;;;;9.32;4.80;;;;;;;21.28;60.65;98939.94;6188447;23;20004;-90
2022/08/18 03:14:46;;;;;;;8.27;4.32;;;;;;;21.35;60.22;98945.59;6163464;23;20020;-90
2022/08/18 03:17:13;;;;;;;7.97;4.60;;;;;;;21.37;60.21;98937.84;6139084;23;20083;-90
2022/08/18 03:19:39;;;;;;;7.95;4.88;;;;;;;21.52;59.42;98944.50;6162925;23;20000;-92
2022/08/18 03:22:07;;;;;;;8.88;5.03;;;;;;;21.65;59.19;98939.75;6163089;23;20008;-91
2022/08/18 03:24:33;;;;;;;6.93;4.30;;;;;;;21.76;58.98;98932.56;6189168;23;20008;-91
2022/08/18 03:26:58;;;;;;;9.77;4.95;;;;;;;21.89;58.59;98946.97;6188632;23;20027;-90
2022/08/18 03:29:24;;;;;;;9.32;5.45;;;;;;;21.86;58.15;98946.91;6163373;23;20000;-91
2022/08/18 03:31:50;;;;;;;8.77;4.85;;;;;;;21.89;57.63;98957.16;6167633;23;20019;-90
2022/08/18 03:34:20;;;;;;;7.32;4.60;;;;;;;21.85;58.36;98973.53;6168193;23;20015;-90
2022/08/18 03:36:49;;;;;;;11.93;4.97;;;;;;;21.64;59.01;98953.78;6168930;23;20035;-91
2022/08/18 03:39:15;;;;;;;5.30;4.43;;;;;;;21.56;59.91;98977.44;6195990;23;20008;-91
2022/08/18 03:41:44;;;;;;;6.18;4.07;;;;;;;21.43;59.58;98975.94;6193273;23;20447;-91
2022/08/18 03:44:11;;;;;;;10.55;4.57;;;;;;;21.19;60.53;98959.25;6194504;23;20445;-92
2022/08/18 03:46:38;;;;;;;7.50;4.93;;;;;;;21.20;61.28;98969.06;6193968;23;20094;-92
2022/08/18 03:49:03;;;;;;;8.18;4.28;;;;;;;21.20;60.44;98954.56;6169005;23;20079;-92
2022/08/18 03:51:31;;;;;;;7.43;4.47;;;;;;;21.06;61.11;98965.91;6169828;23;20004;-94
2022/08/18 03:53:59;;;;;;;11.40;4.80;;;;;;;21.16;60.72;98965.41;6195514;23;20365;-94
2022/08/18 03:56:26;;;;;;;9.05;5.18;;;;;;;21.09;60.87;98972.66;6170013;23;20004;-94
2022/08/18 03:59:06;;;;;;;7.28;4.45;;;;;;;20.89;60.97;98964.28;6170001;23;20000;-94
2022/08/18 04:01:33;;;;;;;6.72;4.50;;;;;;;20.96;61.29;98961.75;6196171;23;20403;-93
2022/08/18 04:04:02;;;;;;;8.40;4.55;;;;;;;20.90;61.41;98949.47;6169164;23;20355;-93
2022/08/18 04:06:32;;;;;;;10.23;5.03;;;;;;;21.04;61.16;98978.38;6170307;23;20008;-94
2022/08/18 04:08:59;;;;;;;7.68;5.07;;;;;;;20.96;61.41;98969.19;6169120;23;20007;-94
2022/08/18 04:11:24;;;;;;;7.28;5.05;;;;;;;21.07;61.36;98973.00;6194444;23;20031;-92
2022/08/18 04:13:50;;;;;;;7.97;4.97;;;;;;;21.07;62.07;98964.78;6169882;23;20012;-93
2022/08/18 04:16:15;;;;;;;9.88;5.22;;;;;;;21.03;61.60;98974.06;6169401;23;20030;-93
2022/08/18 04:18:41;;;;;;;11.80;5.10;;;;;;;20.94;62.20;98963.25;6199921;23;20000;-94
2022/08/18 04:21:08;;;;;;;8.55;4.43;;;;;;;20.91;62.36;98972.94;6170268;23;20081;-95
2022/08/18 04:23:34;;;;;;;10.93;4.72;;;;;;;20.90;62.51;98984.25;6196118;23;20007;-94
2022/08/18 04:26:01;;;;;;;6.50;4.57;;;;;;;20.96;62.25;98982.88;6196183;23;20028;-94
2022/08/18 04:28:27;;;;;;;16.67;4.97;;;;;;;20.86;62.71;98972.41;6222294;23;20000;-93
2022/08/18 04:30:58;;;;;;;8.10;4.63;;;;;;;20.97;62.71;98989.91;6194519;23;20027;-92
2022/08/18 04:33:26;;;;;;;9.45;5.15;;;;;;;20.90;62.93;98989.72;6167067;23;20039;-94
2022/08/18 04:35:53;;;;;;;9.05;5.18;;;;;;;20.90;62.43;98985.03;6196607;23;20086;-93
2022/08/18 04:38:19;;;;;;;9.13;4.97;;;;;;;20.94;62.14;98975.00;6196302;23;20381;-94
2022/08/18 04:40:46;;;;;;;7.00;4.65;;;;;;;21.09;62.29;98989.09;6196045;23;20138;-93
2022/08/18 04:43:14;;;;;;;9.85;5.18;;;;;;;21.18;61.80;98987.78;6173159;23;19996;-93
2022/08/18 04:45:41;;;;;;;11.15;5.82;;;;;;;21.25;61.72;98981.72;6195114;23;20084;-93
2022/08/18 04:48:06;;;;;;;13.48;8.55;;;;;;;21.30;61.12;98983.41;6171948;23;20418;-91
2022/08/18 04:50:32;;;;;;;13.40;5.85;;;;;;;21.47;61.27;98991.31;6195233;23;20007;-93
2022/08/18 04:55:50;;;;;;;15.48;5.53;;;;;;;21.66;60.27;98987.09;6203592;23;20485;-92
2022/08/18 04:58:17;;;;;;;8.80;5.20;;;;;;;21.77;59.83;98986.25;6197049;23;20057;-92
2022/08/18 05:00:44;;;;;;;9.63;5.00;;;;;;;21.95;59.69;99002.34;6172347;23;20006;-93
2022/08/18 05:03:10;;;;;;;13.50;5.32;;;;;;;21.89;59.20;98982.59;6195531;23;20000;-92
2022/08/18 05:05:35;;;;;;;13.60;6.30;;;;;;;21.95;58.64;98972.97;6196104;23;20004;-92
2022/08/18 05:08:01;;;;;;;16.00;6.32;;;;;;;22.22;58.02;98994.34;6201733;23;19996;-95
2022/08/18 05:10:26;;;;;;;12.88;6.13;;;;;;;22.30;57.26;98979.69;6196345;23;20000;-93
2022/08/18 05:12:52;;;;;;;11.15;5.97;;;;;;;22.41;57.17;98975.22;6170897;23;20335;-94
2022/08/18 05:15:18;;;;;;;13.85;5.68;;;;;;;22.46;56.48;98969.47;6197468;23;20379;-94
2022/08/18 05:17:46;;;;;;;12.23;6.32;;;;;;;22.59;56.82;98978.38;6200389;23;20027;-94
2022/08/18 05:20:15;;;;;;;13.25;5.45;;;;;;;22.68;55.36;98973.50;6201349;23;20000;-94
2022/08/18 05:22:44;;;;;;;9.10;5.43;;;;;;;22.77;55.43;98981.53;6178349;23;20424;-93
2022/08/18 05:25:11;;;;;;;11.30;5.15;;;;;;;22.89;55.04;98966.84;6172636;23;20004;-92
2022/08/18 05:27:41;;;;;;;11.63;7.38;;;;;;;23.11;55.14;98981.84;6164451;23;20505;-91
2022/08/18 05:30:07;;;;;;;11.32;5.55;;;;;;;23.25;54.49;98984.88;6165309;23;20026;-90
2022/08/18 05:32:36;;;;;;;7.68;5.07;;;;;;;23.37;55.06;98981.19;6175728;23;20007;-94
2022/08/18 05:35:06;;;;;;;9.40;5.20;;;;;;;23.53;53.85;98989.31;6143998;23;19999;-90
2022/08/18 05:38:16;;;;;;;9.63;5.28;;;;;;;23.76;53.63;99017.66;6190498;23;20023;-90
2022/08/18 05:40:45;;;;;;;8.20;5.32;;;;;;;23.86;53.51;99010.75;6210982;23;19996;-90
2022/08/18 05:43:10;;;;;;;7.53;5.13;;;;;;;23.95;51.49;99011.31;6165482;23;20417;-90
2022/08/18 05:45:49;;;;;;;7.57;4.60;;;;;;;23.86;51.42;98994.25;6175545;23;20008;-96
2022/08/18 05:48:16;;;;;;;11.57;6.30;;;;;;;24.04;50.85;98993.75;6180531;23;20016;-94
2022/08/18 05:50:41;;;;;;;8.57;5.57;;;;;;;24.36;51.06;99017.06;6154796;23;20001;-96
2022/08/18 05:53:09;;;;;;;9.05;4.53;;;;;;;24.47;50.65;99002.69;6148173;23;20005;-94
2022/08/18 05:58:27;;;;;;;8.73;4.70;;;;;;;24.71;49.53;98999.50;6181211;23;20076;-93
2022/08/18 06:00:55;;;;;;;12.40;5.75;;;;;;;24.88;49.37;99011.94;6144097;23;20000;-94
2022/08/18 06:03:27;;;;;;;7.85;5.15;;;;;;;24.94;49.54;99006.88;6147656;23;20423;-93
2022/08/18 06:06:07;;;;;;;10.20;4.78;;;;;;;25.02;48.99;98987.31;6143764;23;20040;-96
2022/08/18 06:08:56;;;;;;;19.02;5.93;;;;;;;25.20;49.03;99004.09;6201027;23;20008;-96
2022/08/18 06:11:22;;;;;;;18.40;5.05;;;;;;;25.30;48.22;98977.84;6181173;23;20008;-96
2022/08/18 06:13:49;;;;;;;8.13;4.88;;;;;;;25.44;48.31;98984.66;6150694;23;20000;-96
2022/08/18 06:16:20;;;;;;;7.78;4.47;;;;;;;25.56;47.84;98989.91;6151445;23;19997;-96
2022/08/18 06:19:17;;;;;;;7.95;4.57;;;;;;;25.77;47.52;99011.38;6204991;23;20066;-96
2022/08/18 06:21:59;;;;;;;9.48;4.88;;;;;;;25.92;47.36;99010.38;6172782;23;20063;-91
2022/08/18 06:24:51;;;;;;;8.30;4.55;;;;;;;25.95;46.47;98995.03;6193857;23;20324;-92
2022/08/18 06:27:50;;;;;;;9.05;4.50;;;;;;;26.07;46.25;98994.72;6201569;23;20064;-95
2022/08/18 06:30:40;;;;;;;8.57;4.80;;;;;;;26.23;45.35;99000.00;6219531;23;20427;-95
2022/08/18 06:33:35;;;;;;;7.38;3.63;;;;;;;26.36;45.00;98998.50;6224258;23;20000;-93
2022/08/18 06:36:43;;;;;;;7.65;4.00;;;;;;;26.47;43.93;99000.53;6194163;23;20065;-92
2022/08/18 06:39:31;;;;;;;7.90;3.90;;;;;;;26.70;44.26;99016.88;6219627;23;20346;-92
2022/08/18 06:41:57;;;;;;;4.40;3.60;;;;;;;26.70;43.64;99009.38;6194447;23;20019;-93
2022/08/18 06:44:32;;;;;;;4.72;3.30;;;;;;;26.76;43.38;99013.34;6193781;23;20343;-91
2022/08/18 06:47:21;;;;;;;6.70;3.55;;;;;;;26.98;43.70;99027.28;6222574;23;20003;-91
2022/08/18 06:49:53;;;;;;;5.32;3.38;;;;;;;26.88;43.37;99006.72;6222585;23;19992;-94
2022/08/18 06:52:28;;;;;;;4.10;3.15;;;;;;;27.05;42.54;99012.72;6220670;23;20411;-94
2022/08/18 06:54:57;;;;;;;5.10;3.65;;;;;;;27.14;42.67;99010.38;6195387;23;20000;-94
2022/08/18 06:57:26;;;;;;;7.07;3.45;;;;;;;27.15;42.60;99011.97;6171250;23;20003;-91
2022/08/18 07:00:18;;;;;;;4.35;3.28;;;;;;;27.27;42.67;99008.06;6221291;23;19996;-93
2022/08/18 07:03:44;;;;;;;4.68;3.17;;;;;;;27.47;41.66;99012.06;6174838;23;20000;-96
2022/08/18 07:06:30;;;;;;;3.53;3.00;;;;;;;27.45;40.80;98988.78;6194395;23;20372;-94
2022/08/18 07:09:20;;;;;;;4.68;3.25;;;;;;;27.69;39.88;99009.38;6160675;23;20005;-92
2022/08/18 07:15:17;;;;;;;6.65;3.25;;;;;;;27.86;40.42;98985.66;6165185;23;20463;-95
2022/08/18 07:17:54;;;;;;;4.68;3.10;;;;;;;27.87;39.87;98982.56;6157996;23;20111;-92
2022/08/18 07:20:23;;;;;;;4.55;3.47;;;;;;;28.11;39.81;98982.94;6131141;23;20092;-91
2022/08/18 07:24:05;;;;;;;;;;;;;;;;;;;;;
2022/08/18 07:26:51;;;;;;;3.60;3.00;;;;;;;28.20;38.76;98984.13;6121850;23;20092;-92
2022/08/18 07:29:17;;;;;;;4.70;3.30;;;;;;;28.33;39.08;98983.72;6162691;23;20149;-92
2022/08/18 07:31:47;;;;;;;4.68;3.85;;;;;;;28.35;39.18;98971.03;6158683;23;20001;-94
2022/08/18 07:34:18;;;;;;;6.80;3.30;;;;;;;28.60;38.65;98997.94;6185203;23;20408;-96
2022/08/18 07:36:48;;;;;;;;;;;;;;;28.63;38.51;99005.44;6195800;23;20008;-96
2022/08/18 07:39:40;;;;;;;4.35;3.50;;;;;;;28.68;38.54;99007.00;6193869;23;19910;-91
2022/08/18 07:42:17;;;;;;;4.55;3.45;;;;;;;28.64;39.11;98998.72;6239922;23;20004;-92
2022/08/18 07:45:08;;;;;;;5.60;4.13;;;;;;;28.83;38.83;99011.31;6194489;23;20413;-94
2022/08/18 07:48:26;;;;;;;5.05;3.90;;;;;;;28.88;38.27;99004.56;6218841;23;20000;-92
2022/08/18 07:51:06;;;;;;;5.63;3.55;;;;;;;29.03;37.83;99006.09;6220109;23;19996;-96
2022/08/18 07:53:35;;;;;;;4.80;3.40;;;;;;;29.13;37.54;99007.28;6220152;23;20064;-95
2022/08/18 07:56:31;;;;;;;4.88;3.60;;;;;;;29.05;38.13;98987.06;6219698;23;20000;-93
2022/08/18 07:59:12;;;;;;;3.65;2.90;;;;;;;29.37;37.36;99000.81;6198229;23;20003;-94
2022/08/18 08:01:47;;;;;;;3.60;2.80;;;;;;;29.32;36.93;98992.13;6171550;23;20016;-96
2022/08/18 08:04:45;;;;;;;;;;;;;;;;;;;;;
2022/08/18 08:07:42;;;;;;;7.15;3.40;;;;;;;29.47;37.28;98987.28;6250117;23;20075;-95
2022/08/18 08:10:17;;;;;;;5.90;3.35;;;;;;;29.59;35.80;99000.66;6203857;23;20032;-94
2022/08/18 08:13:01;;;;;;;4.70;3.75;;;;;;;29.52;36.69;98987.63;6221001;23;20011;-95
2022/08/18 08:15:55;;;;;;;6.35;3.78;;;;;;;29.60;37.22;98997.50;6223040;23;19992;-94
2022/08/18 08:18:41;;;;;;;6.43;3.20;;;;;;;29.57;36.46;98981.69;6199884;23;20423;-94
2022/08/18 08:21:13;;;;;;;4.80;2.90;;;;;;;29.65;36.63;98976.84;6246411;23;20328;-90
2022/08/18 08:23:51;;;;;;;13.85;8.98;;;;;;;29.91;36.46;98996.94;6194826;23;20016;-92
2022/08/18 08:26:28;;;;;;;4.00;3.42;;;;;;;29.81;36.79;98976.38;6246331;23;20008;-93
2022/08/18 08:29:29;;;;;;;5.47;3.55;;;;;;;29.99;37.02;98990.91;6245208;23;19996;-92
2022/08/18 08:32:02;;;;;;;4.05;3.30;;;;;;;30.02;36.85;98992.06;6208445;23;20000;-93
2022/08/18 08:34:43;;;;;;;5.45;3.45;;;;;;;30.15;36.42;98997.91;6220597;23;20000;-93
2022/08/18 08:37:14;;;;;;;8.27;3.55;;;;;;;29.83;36.19;98970.41;6264025;22;20049;-95
2022/08/18 08:39:56;;;;;;;4.25;2.85;;;;;;;30.10;35.64;98990.03;6221975;23;20010;-96
2022/08/18 08:42:48;;;;;;;8.30;3.55;;;;;;;30.11;35.26;98980.47;6208582;23;20000;-95
2022/08/18 08:45:35;;;;;;;6.22;3.25;;;;;;;30.14;34.85;98976.91;6260759;22;20008;-94
2022/08/18 08:48:01;;;;;;;6.00;3.25;;;;;;;30.26;34.64;98993.06;6237125;23;20004;-96
2022/08/18 08:50:36;;;;;;;3.78;2.67;;;;;;;30.25;34.49;98985.13;6232639;23;20004;-96
2022/08/18 08:53:15;;;;;;;7.60;4.40;;;;;;;30.27;34.26;98968.84;6254864;23;20004;-96
2022/08/18 08:55:44;;;;;;;5.88;4.10;;;;;;;30.41;34.97;98974.28;6226621;23;20000;-96
2022/08/18 08:58:32;;;;;;;3.60;3.00;;;;;;;30.55;33.54;98999.13;6233204;23;20069;-95
2022/08/18 09:01:02;;;;;;;3.92;2.47;;;;;;;30.64;33.03;98981.97;6202082;23;20000;-96
2022/08/18 09:03:40;;;;;;;6.20;2.67;;;;;;;30.71;32.58;98998.56;6207088;23;20011;-94
2022/08/18 09:06:16;;;;;;;4.88;3.00;;;;;;;30.69;33.00;98975.16;6228534;23;20455;-94
2022/08/18 09:09:11;;;;;;;4.10;2.70;;;;;;;30.64;33.23;98962.53;6225822;23;20000;-96
2022/08/18 09:11:42;;;;;;;5.30;2.92;;;;;;;30.81;33.24;98985.75;6202510;23;20461;-93
2022/08/18 09:14:19;;;;;;;5.90;3.38;;;;;;;30.81;34.00;98994.09;6223489;23;20019;-95
2022/08/18 09:16:54;;;;;;;4.97;2.90;;;;;;;30.80;32.89;98973.84;6224676;23;20029;-94
2022/08/18 09:19:46;;;;;;;3.67;2.90;;;;;;;31.02;32.49;98987.50;6221326;23;20007;-96
2022/08/18 09:22:18;;;;;;;4.25;3.20;;;;;;;30.98;32.75;98951.41;6190006;23;20024;-94
2022/08/18 09:24:49;;;;;;;4.45;3.38;;;;;;;30.99;33.16;98966.09;6170462;23;20087;-94
2022/08/18 09:27:36;;;;;;;6.00;2.85;;;;;;;31.18;32.89;98976.56;6169788;23;20008;-96
2022/08/18 09:30:04;;;;;;;4.65;2.92;;;;;;;31.25;31.39;98984.03;6223406;23;19997;-95
2022/08/18 09:42:51;;;;;;;4.63;2.92;;;;;;;31.47;31.87;98978.19;6159735;23;19960;-96
2022/08/18 09:45:45;;;;;;;5.13;2.85;;;;;;;31.58;31.57;98962.13;6162982;23;20005;-95
2022/08/18 09:48:11;;;;;;;3.17;2.45;;;;;;;31.66;30.64;98958.00;6217983;23;20007;-96
2022/08/18 09:51:07;;;;;;;3.85;2.53;;;;;;;31.64;30.92;98970.78;6254228;23;19996;-96
2022/08/18 09:53:46;;;;;;;5.07;3.00;;;;;;;31.53;30.81;98946.69;6228004;23;20035;-93
2022/08/18 09:56:15;;;;;;;4.47;3.05;;;;;;;31.56;30.20;98942.28;6200196;23;20024;-95
2022/08/18 09:59:00;;;;;;;5.00;2.83;;;;;;;31.62;30.14;98930.22;6196832;23;20075;-93
2022/08/18 10:01:46;;;;;;;3.90;2.92;;;;;;;31.80;30.17;98968.16;6173605;23;20074;-93
2022/08/18 10:04:47;;;;;;;3.80;2.83;;;;;;;31.81;29.88;98941.88;6221090;23;20004;-93
2022/08/18 10:07:35;;;;;;;4.20;3.50;;;;;;;31.90;29.60;98955.25;6195190;23;20091;-95
2022/08/18 10:10:25;;;;;;;5.40;3.15;;;;;;;31.98;29.89;98956.69;6224796;23;20003;-95
2022/08/18 10:13:20;;;;;;;5.80;3.40;;;;;;;31.97;29.80;98925.28;6230447;23;20048;-96
2022/08/18 10:16:09;;;;;;;5.40;3.00;;;;;;;32.07;29.16;98936.69;6230154;23;19996;-95
2022/08/18 10:19:15;;;;;;;3.50;2.95;;;;;;;32.14;28.96;98937.34;6224344;23;20011;-95
2022/08/18 10:22:02;;;;;;;4.88;3.80;;;;;;;31.96;29.54;98929.28;6250422;23;20027;-94
2022/08/18 10:24:36;;;;;;;3.72;3.10;;;;;;;32.12;29.59;98925.84;6219275;23;20015;-92
2022/08/18 10:27:04;;;;;;;4.68;3.45;;;;;;;32.08;29.11;98916.75;6196422;23;20067;-92
2022/08/18 10:29:31;;;;;;;4.88;3.40;;;;;;;32.31;29.11;98945.78;6170649;23;20007;-90
2022/08/18 10:31:57;;;;;;;4.15;3.00;;;;;;;32.32;28.92;98928.66;6218219;23;20041;-91
2022/08/18 10:34:49;;;;;;;5.22;2.95;;;;;;;32.38;28.82;98943.66;6218953;23;20435;-92
2022/08/18 10:37:43;;;;;;;6.75;4.65;;;;;;;32.34;28.93;98920.66;6194586;23;20063;-92
2022/08/18 10:40:08;;;;;;;4.95;2.72;;;;;;;32.55;28.84;98941.78;6173068;23;20185;-92
2022/08/18 10:42:49;;;;;;;5.18;3.25;;;;;;;32.18;28.95;98920.56;6219010;23;20000;-91
2022/08/18 10:45:27;;;;;;;5.60;4.10;;;;;;;32.07;29.68;98906.84;6171044;23;20012;-93
2022/08/18 10:48:23;;;;;;;7.28;4.53;;;;;;;32.40;29.93;98924.53;6195294;23;20007;-91
2022/08/18 10:51:28;;;;;;;4.47;3.28;;;;;;;32.38;29.11;98915.03;6246547;23;19996;-92
2022/08/18 10:53:58;;;;;;;4.25;3.17;;;;;;;32.38;28.65;98918.59;6102119;23;20112;-93
2022/08/18 10:56:42;;;;;;;4.28;2.83;;;;;;;32.40;28.64;98902.22;6165501;23;19996;-92
2022/08/18 10:59:40;;;;;;;4.70;3.28;;;;;;;32.59;28.40;98919.41;6194041;23;19996;-93
2022/08/18 11:02:17;;;;;;;5.97;3.15;;;;;;;32.55;28.22;98913.13;6218436;23;20004;-91
2022/08/18 11:04:48;;;;;;;3.97;3.20;;;;;;;32.54;28.56;98903.97;6219033;23;20058;-94
2022/08/18 11:07:21;;;;;;;4.88;3.25;;;;;;;32.57;29.13;98916.25;6220278;23;19996;-95
2022/08/18 11:09:51;;;;;;;4.35;3.22;;;;;;;32.61;28.26;98914.19;6169989;23;20069;-93
2022/08/18 11:15:40;;;;;;;6.07;3.20;;;;;;;32.64;28.02;98891.00;6248197;23;20394;-94
2022/08/18 11:18:43;;;;;;;5.57;3.83;;;;;;;32.92;27.54;98913.94;6200096;23;20462;-95
2022/08/18 11:21:33;;;;;;;5.55;3.50;;;;;;;32.90;27.46;98896.88;6196563;23;20008;-95
2022/08/18 11:24:35;;;;;;;5.25;3.65;;;;;;;32.95;27.44;98904.72;6196605;23;20020;-91
2022/08/18 11:27:05;;;;;;;5.65;3.88;;;;;;;32.94;27.43;98898.34;6127443;23;20036;-91
2022/08/18 11:29:38;;;;;;;7.60;3.37;;;;;;;33.01;26.88;98886.25;6187996;23;20007;-91
2022/08/18 11:32:09;;;;;;;5.18;3.47;;;;;;;32.96;26.90;98901.50;6170855;23;20231;-92
2022/08/18 11:34:54;;;;;;;5.32;3.67;;;;;;;33.08;26.36;98907.63;6193012;23;20089;-93
2022/08/18 11:37:20;;;;;;;4.35;3.20;;;;;;;33.16;26.92;98903.47;6217794;23;20083;-94
2022/08/18 11:40:25;;;;;;;7.18;3.70;;;;;;;33.02;26.71;98871.88;6245818;23;20445;-91
2022/08/18 11:42:54;;;;;;;5.28;3.80;;;;;;;33.22;27.25;98882.19;6224273;23;20027;-93
2022/08/18 11:45:22;;;;;;;4.18;3.53;;;;;;;33.12;26.71;98880.44;6172194;23;20000;-94
2022/08/18 11:48:08;;;;;;;5.13;3.70;;;;;;;33.25;26.81;98883.34;6173003;23;20015;-92
2022/08/18 11:50:42;;;;;;;5.25;4.28;;;;;;;33.30;26.92;98886.41;6199707;23;20007;-93
2022/08/18 11:53:38;;;;;;;6.82;4.00;;;;;;;33.25;27.28;98880.56;6199508;23;20000;-92
2022/08/18 11:56:12;;;;;;;6.70;3.53;;;;;;;33.36;27.50;98878.28;6201125;23;20028;-92
2022/08/18 11:58:55;;;;;;;5.28;4.00;;;;;;;33.14;26.73;98861.25;6249296;23;19996;-93
2022/08/18 12:01:58;;;;;;;8.27;4.05;;;;;;;33.40;26.44;98873.41;6173062;23;20007;-91
2022/08/18 12:04:37;;;;;;;6.35;4.45;;;;;;;33.43;26.89;98872.53;6196759;23;20000;-91
2022/08/18 12:07:07;;;;;;;5.28;3.90;;;;;;;33.53;27.11;98868.69;6194386;23;20004;-91
2022/08/18 12:10:16;;;;;;;10.02;4.43;;;;;;;33.41;27.04;98853.44;6196138;23;20082;-93
2022/08/18 12:12:49;;;;;;;5.63;3.80;;;;;;;33.40;25.97;98859.47;6185887;23;20011;-93
2022/08/18 12:15:15;;;;;;;7.38;3.97;;;;;;;33.62;26.11;98873.72;6195521;23;20008;-93
2022/08/18 12:17:41;;;;;;;8.13;4.45;;;;;;;33.47;26.46;98855.69;6221290;23;20004;-92
2022/08/18 12:20:08;;;;;;;6.97;3.90;;;;;;;33.61;25.94;98856.16;6170710;23;20466;-92
2022/08/18 12:22:34;;;;;;;6.85;4.07;;;;;;;33.53;26.56;98826.81;6195814;23;20075;-91
2022/08/18 12:25:12;;;;;;;5.50;4.10;;;;;;;33.68;26.18;98834.84;6220176;23;20438;-93
2022/08/18 12:27:41;;;;;;;6.90;4.22;;;;;;;33.74;26.39;98845.03;6171869;23;20015;-91
2022/08/18 12:30:07;;;;;;;8.50;4.05;;;;;;;33.90;25.73;98835.06;6171310;23;20003;-92
2022/08/18 12:32:36;;;;;;;5.80;4.00;;;;;;;34.04;25.54;98857.03;6171630;23;20058;-94
2022/08/18 12:35:06;;;;;;;5.15;3.70;;;;;;;33.83;25.34;98830.47;6172255;23;20419;-94
2022/08/18 12:37:32;;;;;;;4.80;3.92;;;;;;;33.72;25.88;98830.72;6173773;23;20023;-94
2022/08/18 12:39:58;;;;;;;4.80;3.75;;;;;;;33.72;25.45;98810.41;6172660;23;20000;-92